sensor_id;sensor_type;location;lat;lon;timestamp;pressure;altitude;pressure_sealevel;temperature;humidity
47080;BME280;33067;49.296;14.470;2023-04-08T00:01:47;97013.48;;;7.77;45.28
47080;BME280;33067;49.296;14.470;2023-04-08T00:04:13;97012.20;;;7.27;45.72
47080;BME280;33067;49.296;14.470;2023-04-08T00:06:38;97015.12;;;7.47;45.60
47080;BME280;33067;49.296;14.470;2023-04-08T00:09:03;97016.73;;;7.10;46.06
47080;BME280;33067;49.296;14.470;2023-04-08T00:11:29;97013.72;;;7.20;46.39
47080;BME280;33067;49.296;14.470;2023-04-08T00:13:55;97015.06;;;7.21;46.26
47080;BME280;33067;49.296;14.470;2023-04-08T00:16:20;97015.68;;;7.28;46.31
47080;BME280;33067;49.296;14.470;2023-04-08T00:18:45;97012.33;;;7.76;46.12
47080;BME280;33067;49.296;14.470;2023-04-08T00:21:11;97009.66;;;7.64;45.79
47080;BME280;33067;49.296;14.470;2023-04-08T00:23:37;97011.53;;;7.68;45.65
47080;BME280;33067;49.296;14.470;2023-04-08T00:26:02;97008.54;;;8.03;44.78
47080;BME280;33067;49.296;14.470;2023-04-08T00:28:28;97009.89;;;7.73;44.78
47080;BME280;33067;49.296;14.470;2023-04-08T00:30:53;97009.17;;;7.19;46.12
47080;BME280;33067;49.296;14.470;2023-04-08T00:33:19;97013.56;;;7.58;45.68
47080;BME280;33067;49.296;14.470;2023-04-08T00:35:44;97014.79;;;7.85;45.15
47080;BME280;33067;49.296;14.470;2023-04-08T00:38:09;97016.80;;;7.43;45.37
47080;BME280;33067;49.296;14.470;2023-04-08T00:40:35;97016.88;;;6.93;46.09
47080;BME280;33067;49.296;14.470;2023-04-08T00:43:01;97017.36;;;7.19;46.08
47080;BME280;33067;49.296;14.470;2023-04-08T00:45:26;97021.08;;;7.08;46.27
47080;BME280;33067;49.296;14.470;2023-04-08T00:47:52;97020.89;;;7.14;46.03
47080;BME280;33067;49.296;14.470;2023-04-08T00:50:17;97020.61;;;7.07;46.11
47080;BME280;33067;49.296;14.470;2023-04-08T00:52:43;97021.60;;;6.96;46.08
47080;BME280;33067;49.296;14.470;2023-04-08T00:55:09;97024.43;;;6.21;47.29
47080;BME280;33067;49.296;14.470;2023-04-08T00:57:34;97020.27;;;6.66;46.56
47080;BME280;33067;49.296;14.470;2023-04-08T00:59:59;97020.27;;;6.33;46.87
47080;BME280;33067;49.296;14.470;2023-04-08T01:02:30;97022.44;;;6.74;46.61
47080;BME280;33067;49.296;14.470;2023-04-08T01:04:56;97023.69;;;6.65;46.50
47080;BME280;33067;49.296;14.470;2023-04-08T01:07:19;97022.66;;;6.49;46.26
47080;BME280;33067;49.296;14.470;2023-04-08T01:09:44;97022.43;;;6.83;46.04
47080;BME280;33067;49.296;14.470;2023-04-08T01:12:08;97028.91;;;5.74;47.29
47080;BME280;33067;49.296;14.470;2023-04-08T01:14:34;97024.04;;;6.31;46.61
47080;BME280;33067;49.296;14.470;2023-04-08T01:16:58;97024.98;;;6.33;46.90
47080;BME280;33067;49.296;14.470;2023-04-08T01:19:29;97025.88;;;6.70;46.61
47080;BME280;33067;49.296;14.470;2023-04-08T01:21:48;97025.22;;;6.72;46.74
47080;BME280;33067;49.296;14.470;2023-04-08T01:24:19;97023.77;;;6.48;46.88
47080;BME280;33067;49.296;14.470;2023-04-08T01:26:40;97024.57;;;6.83;46.68
47080;BME280;33067;49.296;14.470;2023-04-08T01:29:06;97022.62;;;7.08;45.74
47080;BME280;33067;49.296;14.470;2023-04-08T01:31:31;97021.10;;;6.83;45.63
47080;BME280;33067;49.296;14.470;2023-04-08T01:33:59;97025.34;;;7.05;45.36
47080;BME280;33067;49.296;14.470;2023-04-08T01:36:23;97025.03;;;6.98;45.30
47080;BME280;33067;49.296;14.470;2023-04-08T01:38:47;97023.06;;;6.92;45.25
47080;BME280;33067;49.296;14.470;2023-04-08T01:41:12;97021.87;;;7.09;45.31
47080;BME280;33067;49.296;14.470;2023-04-08T01:43:39;97021.15;;;6.91;45.29
47080;BME280;33067;49.296;14.470;2023-04-08T01:46:05;97021.52;;;7.10;44.69
47080;BME280;33067;49.296;14.470;2023-04-08T01:48:29;97021.41;;;6.90;45.31
47080;BME280;33067;49.296;14.470;2023-04-08T01:50:55;97018.76;;;7.22;44.39
47080;BME280;33067;49.296;14.470;2023-04-08T01:53:19;97019.52;;;7.33;44.06
47080;BME280;33067;49.296;14.470;2023-04-08T01:55:46;97021.47;;;7.41;43.81
47080;BME280;33067;49.296;14.470;2023-04-08T01:58:16;97022.73;;;7.68;43.32
47080;BME280;33067;49.296;14.470;2023-04-08T02:00:37;97020.68;;;7.27;44.06
47080;BME280;33067;49.296;14.470;2023-04-08T02:03:04;97020.00;;;7.25;44.20
47080;BME280;33067;49.296;14.470;2023-04-08T02:05:27;97023.40;;;7.34;44.43
47080;BME280;33067;49.296;14.470;2023-04-08T02:07:52;97020.99;;;6.96;44.22
47080;BME280;33067;49.296;14.470;2023-04-08T02:13:01;97026.75;;;7.29;43.02
47080;BME280;33067;49.296;14.470;2023-04-08T02:15:28;97026.37;;;7.27;43.06
47080;BME280;33067;49.296;14.470;2023-04-08T02:17:54;97026.98;;;7.27;43.38
47080;BME280;33067;49.296;14.470;2023-04-08T02:20:18;97026.26;;;7.21;43.07
47080;BME280;33067;49.296;14.470;2023-04-08T02:22:43;97027.42;;;7.27;42.93
47080;BME280;33067;49.296;14.470;2023-04-08T02:25:12;97031.51;;;7.43;43.04
47080;BME280;33067;49.296;14.470;2023-04-08T02:27:34;97031.40;;;7.47;42.83
47080;BME280;33067;49.296;14.470;2023-04-08T02:29:59;97032.43;;;7.57;42.71
47080;BME280;33067;49.296;14.470;2023-04-08T02:32:25;97030.89;;;7.04;43.01
47080;BME280;33067;49.296;14.470;2023-04-08T02:34:50;97031.59;;;7.16;43.18
47080;BME280;33067;49.296;14.470;2023-04-08T02:37:15;97030.01;;;7.17;42.93
47080;BME280;33067;49.296;14.470;2023-04-08T02:39:40;97034.58;;;6.93;43.58
47080;BME280;33067;49.296;14.470;2023-04-08T02:42:06;97032.65;;;7.28;43.02
47080;BME280;33067;49.296;14.470;2023-04-08T02:44:31;97033.31;;;7.28;42.89
47080;BME280;33067;49.296;14.470;2023-04-08T02:46:56;97033.11;;;7.21;43.10
47080;BME280;33067;49.296;14.470;2023-04-08T02:49:22;97035.94;;;7.28;42.97
47080;BME280;33067;49.296;14.470;2023-04-08T02:51:48;97035.93;;;7.23;43.10
47080;BME280;33067;49.296;14.470;2023-04-08T02:54:13;97035.93;;;7.21;42.86
47080;BME280;33067;49.296;14.470;2023-04-08T02:56:38;97033.66;;;7.27;42.97
47080;BME280;33067;49.296;14.470;2023-04-08T02:59:04;97032.77;;;7.21;43.16
47080;BME280;33067;49.296;14.470;2023-04-08T03:01:29;97030.07;;;6.90;43.32
47080;BME280;33067;49.296;14.470;2023-04-08T03:03:55;97030.05;;;7.21;43.41
47080;BME280;33067;49.296;14.470;2023-04-08T03:06:20;97030.21;;;7.14;43.31
47080;BME280;33067;49.296;14.470;2023-04-08T03:08:45;97036.69;;;7.03;43.57
47080;BME280;33067;49.296;14.470;2023-04-08T03:11:11;97034.40;;;7.15;43.29
47080;BME280;33067;49.296;14.470;2023-04-08T03:13:36;97034.84;;;7.21;43.13
47080;BME280;33067;49.296;14.470;2023-04-08T03:16:02;97032.82;;;6.72;44.23
47080;BME280;33067;49.296;14.470;2023-04-08T03:18:27;97031.82;;;6.89;44.47
47080;BME280;33067;49.296;14.470;2023-04-08T03:20:53;97028.33;;;6.80;44.03
47080;BME280;33067;49.296;14.470;2023-04-08T03:23:18;97031.16;;;6.48;44.78
47080;BME280;33067;49.296;14.470;2023-04-08T03:25:43;97028.97;;;6.44;44.64
47080;BME280;33067;49.296;14.470;2023-04-08T03:28:08;97027.85;;;6.82;44.36
47080;BME280;33067;49.296;14.470;2023-04-08T03:30:34;97029.30;;;6.80;44.77
47080;BME280;33067;49.296;14.470;2023-04-08T03:32:59;97032.36;;;7.20;44.19
47080;BME280;33067;49.296;14.470;2023-04-08T03:35:25;97035.27;;;7.22;44.14
47080;BME280;33067;49.296;14.470;2023-04-08T03:37:50;97035.12;;;6.93;44.28
47080;BME280;33067;49.296;14.470;2023-04-08T03:40:16;97036.37;;;7.10;44.07
47080;BME280;33067;49.296;14.470;2023-04-08T03:42:41;97035.43;;;7.17;44.15
47080;BME280;33067;49.296;14.470;2023-04-08T03:45:08;97038.07;;;6.97;44.05
47080;BME280;33067;49.296;14.470;2023-04-08T03:47:33;97040.11;;;6.83;44.42
47080;BME280;33067;49.296;14.470;2023-04-08T03:49:58;97042.03;;;6.80;44.98
47080;BME280;33067;49.296;14.470;2023-04-08T03:52:24;97043.50;;;6.24;45.73
47080;BME280;33067;49.296;14.470;2023-04-08T03:54:49;97043.86;;;6.48;45.69
47080;BME280;33067;49.296;14.470;2023-04-08T03:57:14;97044.79;;;6.61;45.30
47080;BME280;33067;49.296;14.470;2023-04-08T03:59:40;97044.38;;;6.71;45.55
47080;BME280;33067;49.296;14.470;2023-04-08T04:02:05;97041.63;;;6.42;45.71
47080;BME280;33067;49.296;14.470;2023-04-08T04:04:30;97042.10;;;6.70;45.12
47080;BME280;33067;49.296;14.470;2023-04-08T04:06:56;97045.35;;;6.79;45.65
47080;BME280;33067;49.296;14.470;2023-04-08T04:09:21;97048.69;;;6.47;45.88
47080;BME280;33067;49.296;14.470;2023-04-08T04:11:46;97050.36;;;6.30;45.99
47080;BME280;33067;49.296;14.470;2023-04-08T04:14:12;97054.13;;;6.53;46.18
47080;BME280;33067;49.296;14.470;2023-04-08T04:16:37;97056.91;;;6.65;46.36
47080;BME280;33067;49.296;14.470;2023-04-08T04:19:02;97062.82;;;6.36;46.44
47080;BME280;33067;49.296;14.470;2023-04-08T04:21:27;97065.26;;;6.52;46.78
47080;BME280;33067;49.296;14.470;2023-04-08T04:23:53;97062.17;;;6.41;46.40
47080;BME280;33067;49.296;14.470;2023-04-08T04:26:18;97068.58;;;6.45;47.09
47080;BME280;33067;49.296;14.470;2023-04-08T04:28:43;97068.93;;;6.57;46.91
47080;BME280;33067;49.296;14.470;2023-04-08T04:31:17;97067.00;;;6.36;47.27
47080;BME280;33067;49.296;14.470;2023-04-08T04:33:34;97068.47;;;6.29;46.96
47080;BME280;33067;49.296;14.470;2023-04-08T04:35:59;97072.68;;;6.07;47.15
47080;BME280;33067;49.296;14.470;2023-04-08T04:38:25;97076.47;;;6.56;47.25
47080;BME280;33067;49.296;14.470;2023-04-08T04:40:50;97079.21;;;6.12;47.37
47080;BME280;33067;49.296;14.470;2023-04-08T04:43:15;97075.73;;;6.60;47.23
47080;BME280;33067;49.296;14.470;2023-04-08T04:45:41;97076.15;;;6.57;47.03
47080;BME280;33067;49.296;14.470;2023-04-08T04:48:07;97081.22;;;6.32;47.37
47080;BME280;33067;49.296;14.470;2023-04-08T04:50:32;97080.74;;;6.25;47.77
47080;BME280;33067;49.296;14.470;2023-04-08T04:52:57;97079.11;;;6.43;47.70
47080;BME280;33067;49.296;14.470;2023-04-08T04:55:23;97082.25;;;6.34;47.93
47080;BME280;33067;49.296;14.470;2023-04-08T04:57:49;97082.54;;;6.44;47.71
47080;BME280;33067;49.296;14.470;2023-04-08T05:00:15;97082.59;;;6.11;47.85
47080;BME280;33067;49.296;14.470;2023-04-08T05:02:39;97081.39;;;6.46;47.97
47080;BME280;33067;49.296;14.470;2023-04-08T05:05:05;97083.43;;;6.52;47.81
47080;BME280;33067;49.296;14.470;2023-04-08T05:07:31;97083.41;;;6.53;47.60
47080;BME280;33067;49.296;14.470;2023-04-08T05:09:56;97082.41;;;6.40;47.54
47080;BME280;33067;49.296;14.470;2023-04-08T05:12:21;97086.75;;;6.44;46.92
47080;BME280;33067;49.296;14.470;2023-04-08T05:14:47;97086.17;;;6.69;47.22
47080;BME280;33067;49.296;14.470;2023-04-08T05:17:13;97086.47;;;6.68;47.04
47080;BME280;33067;49.296;14.470;2023-04-08T05:19:38;97090.76;;;6.64;46.94
47080;BME280;33067;49.296;14.470;2023-04-08T05:22:04;97091.59;;;6.88;47.46
47080;BME280;33067;49.296;14.470;2023-04-08T05:24:30;97093.00;;;6.37;47.81
47080;BME280;33067;49.296;14.470;2023-04-08T05:26:55;97090.78;;;6.56;47.40
47080;BME280;33067;49.296;14.470;2023-04-08T05:29:20;97091.85;;;6.85;47.18
47080;BME280;33067;49.296;14.470;2023-04-08T05:31:46;97095.29;;;6.76;47.29
47080;BME280;33067;49.296;14.470;2023-04-08T05:34:11;97101.35;;;5.95;48.74
47080;BME280;33067;49.296;14.470;2023-04-08T05:36:37;97106.39;;;6.64;47.91
47080;BME280;33067;49.296;14.470;2023-04-08T05:39:03;97104.98;;;6.95;46.86
47080;BME280;33067;49.296;14.470;2023-04-08T05:41:28;97103.88;;;6.72;47.28
47080;BME280;33067;49.296;14.470;2023-04-08T05:43:54;97110.96;;;5.86;48.68
47080;BME280;33067;49.296;14.470;2023-04-08T05:46:19;97114.25;;;6.09;48.40
47080;BME280;33067;49.296;14.470;2023-04-08T05:48:44;97116.73;;;6.29;48.65
47080;BME280;33067;49.296;14.470;2023-04-08T05:51:13;97120.26;;;6.15;48.60
47080;BME280;33067;49.296;14.470;2023-04-08T05:53:35;97120.93;;;6.60;48.47
47080;BME280;33067;49.296;14.470;2023-04-08T05:56:00;97122.56;;;6.10;48.34
47080;BME280;33067;49.296;14.470;2023-04-08T05:58:25;97124.22;;;5.84;49.11
47080;BME280;33067;49.296;14.470;2023-04-08T06:00:50;97128.45;;;5.73;49.49
47080;BME280;33067;49.296;14.470;2023-04-08T06:03:16;97130.57;;;5.64;49.49
47080;BME280;33067;49.296;14.470;2023-04-08T06:05:41;97133.43;;;5.82;49.38
47080;BME280;33067;49.296;14.470;2023-04-08T06:08:07;97132.41;;;5.73;49.49
47080;BME280;33067;49.296;14.470;2023-04-08T06:10:32;97131.34;;;6.06;49.59
47080;BME280;33067;49.296;14.470;2023-04-08T06:12:57;97131.33;;;6.09;49.84
47080;BME280;33067;49.296;14.470;2023-04-08T06:15:22;97131.96;;;5.64;50.51
47080;BME280;33067;49.296;14.470;2023-04-08T06:17:48;97136.08;;;5.86;50.12
47080;BME280;33067;49.296;14.470;2023-04-08T06:20:14;97137.04;;;5.96;50.49
47080;BME280;33067;49.296;14.470;2023-04-08T06:22:38;97137.04;;;6.17;49.43
47080;BME280;33067;49.296;14.470;2023-04-08T06:25:05;97139.30;;;6.06;49.55
47080;BME280;33067;49.296;14.470;2023-04-08T06:27:29;97140.88;;;6.23;49.27
47080;BME280;33067;49.296;14.470;2023-04-08T06:29:55;97145.34;;;6.14;49.69
47080;BME280;33067;49.296;14.470;2023-04-08T06:32:20;97148.56;;;6.17;49.94
47080;BME280;33067;49.296;14.470;2023-04-08T06:34:45;97150.40;;;6.19;49.19
47080;BME280;33067;49.296;14.470;2023-04-08T06:37:11;97155.26;;;6.17;49.57
47080;BME280;33067;49.296;14.470;2023-04-08T06:39:36;97155.00;;;6.73;49.46
47080;BME280;33067;49.296;14.470;2023-04-08T06:42:01;97158.24;;;6.54;49.21
47080;BME280;33067;49.296;14.470;2023-04-08T06:44:26;97164.70;;;6.13;49.77
47080;BME280;33067;49.296;14.470;2023-04-08T06:46:52;97162.02;;;6.49;49.63
47080;BME280;33067;49.296;14.470;2023-04-08T06:49:17;97161.44;;;6.39;49.13
47080;BME280;33067;49.296;14.470;2023-04-08T06:51:43;97163.30;;;6.47;48.99
47080;BME280;33067;49.296;14.470;2023-04-08T06:54:08;97168.04;;;6.65;48.87
47080;BME280;33067;49.296;14.470;2023-04-08T06:56:34;97166.22;;;6.64;48.99
47080;BME280;33067;49.296;14.470;2023-04-08T06:59:00;97170.52;;;6.53;49.08
47080;BME280;33067;49.296;14.470;2023-04-08T07:01:25;97169.35;;;6.84;48.66
47080;BME280;33067;49.296;14.470;2023-04-08T07:03:50;97170.81;;;6.79;48.28
47080;BME280;33067;49.296;14.470;2023-04-08T07:06:16;97175.16;;;6.86;48.40
47080;BME280;33067;49.296;14.470;2023-04-08T07:08:41;97177.28;;;6.95;47.84
47080;BME280;33067;49.296;14.470;2023-04-08T07:11:07;97178.68;;;7.15;48.00
47080;BME280;33067;49.296;14.470;2023-04-08T07:13:32;97177.29;;;7.22;47.44
47080;BME280;33067;49.296;14.470;2023-04-08T07:15:57;97183.11;;;7.02;48.04
47080;BME280;33067;49.296;14.470;2023-04-08T07:18:23;97180.08;;;7.08;47.53
47080;BME280;33067;49.296;14.470;2023-04-08T07:20:50;97183.80;;;7.02;47.42
47080;BME280;33067;49.296;14.470;2023-04-08T07:23:13;97187.38;;;7.69;46.72
47080;BME280;33067;49.296;14.470;2023-04-08T07:25:39;97190.96;;;7.79;47.01
47080;BME280;33067;49.296;14.470;2023-04-08T07:28:05;97193.58;;;7.35;46.99
47080;BME280;33067;49.296;14.470;2023-04-08T07:30:31;97200.38;;;7.31;47.22
47080;BME280;33067;49.296;14.470;2023-04-08T07:32:56;97203.45;;;6.92;47.34
47080;BME280;33067;49.296;14.470;2023-04-08T07:35:21;97200.76;;;7.62;47.25
47080;BME280;33067;49.296;14.470;2023-04-08T07:37:46;97203.15;;;7.65;47.16
47080;BME280;33067;49.296;14.470;2023-04-08T07:40:12;97203.30;;;8.31;46.61
47080;BME280;33067;49.296;14.470;2023-04-08T07:42:38;97205.29;;;8.15;46.10
47080;BME280;33067;49.296;14.470;2023-04-08T07:45:04;97206.81;;;8.14;46.17
47080;BME280;33067;49.296;14.470;2023-04-08T07:47:28;97206.25;;;8.04;45.94
47080;BME280;33067;49.296;14.470;2023-04-08T07:49:54;97207.13;;;8.08;45.61
47080;BME280;33067;49.296;14.470;2023-04-08T07:52:19;97208.65;;;7.99;46.04
47080;BME280;33067;49.296;14.470;2023-04-08T07:54:45;97209.92;;;7.65;45.84
47080;BME280;33067;49.296;14.470;2023-04-08T07:57:10;97209.51;;;7.47;46.88
47080;BME280;33067;49.296;14.470;2023-04-08T07:59:35;97213.89;;;7.67;46.69
47080;BME280;33067;49.296;14.470;2023-04-08T08:02:01;97212.23;;;7.70;47.11
47080;BME280;33067;49.296;14.470;2023-04-08T08:04:27;97210.85;;;6.26;46.03
47080;BME280;33067;49.296;14.470;2023-04-08T08:06:52;97213.76;;;8.76;44.70
47080;BME280;33067;49.296;14.470;2023-04-08T08:09:18;97217.94;;;8.43;45.46
47080;BME280;33067;49.296;14.470;2023-04-08T08:11:43;97219.00;;;8.21;45.82
47080;BME280;33067;49.296;14.470;2023-04-08T08:14:08;97221.41;;;8.28;45.55
47080;BME280;33067;49.296;14.470;2023-04-08T08:16:34;97222.39;;;8.80;45.14
47080;BME280;33067;49.296;14.470;2023-04-08T08:19:00;97224.42;;;8.50;45.58
47080;BME280;33067;49.296;14.470;2023-04-08T08:21:26;97228.15;;;7.93;46.26
47080;BME280;33067;49.296;14.470;2023-04-08T08:23:51;97229.42;;;7.86;46.72
47080;BME280;33067;49.296;14.470;2023-04-08T08:26:17;97230.97;;;7.87;46.50
47080;BME280;33067;49.296;14.470;2023-04-08T08:28:42;97230.13;;;7.51;47.69
47080;BME280;33067;49.296;14.470;2023-04-08T08:31:08;97236.34;;;7.60;47.94
47080;BME280;33067;49.296;14.470;2023-04-08T08:33:34;97236.64;;;7.38;47.58
47080;BME280;33067;49.296;14.470;2023-04-08T08:35:59;97234.88;;;7.90;47.42
47080;BME280;33067;49.296;14.470;2023-04-08T08:38:25;97235.12;;;8.15;47.36
47080;BME280;33067;49.296;14.470;2023-04-08T08:40:54;97240.28;;;7.79;47.22
47080;BME280;33067;49.296;14.470;2023-04-08T08:43:15;97245.60;;;8.04;46.73
47080;BME280;33067;49.296;14.470;2023-04-08T08:45:41;97243.92;;;7.78;45.90
47080;BME280;33067;49.296;14.470;2023-04-08T08:48:06;97250.26;;;7.27;47.93
47080;BME280;33067;49.296;14.470;2023-04-08T08:50:32;97252.63;;;7.51;47.79
47080;BME280;33067;49.296;14.470;2023-04-08T08:52:57;97255.69;;;7.59;47.64
47080;BME280;33067;49.296;14.470;2023-04-08T08:55:23;97254.08;;;7.75;47.36
47080;BME280;33067;49.296;14.470;2023-04-08T08:57:49;97257.20;;;8.10;46.66
47080;BME280;33067;49.296;14.470;2023-04-08T09:00:14;97262.73;;;7.85;47.02
47080;BME280;33067;49.296;14.470;2023-04-08T09:02:39;97263.71;;;7.70;47.53
47080;BME280;33067;49.296;14.470;2023-04-08T09:05:05;97266.87;;;7.93;46.74
47080;BME280;33067;49.296;14.470;2023-04-08T09:07:31;97266.34;;;8.01;46.64
47080;BME280;33067;49.296;14.470;2023-04-08T09:09:56;97266.61;;;8.32;46.11
47080;BME280;33067;49.296;14.470;2023-04-08T09:12:21;97268.86;;;8.78;45.92
47080;BME280;33067;49.296;14.470;2023-04-08T09:14:46;97272.75;;;8.71;45.92
47080;BME280;33067;49.296;14.470;2023-04-08T09:17:11;97274.88;;;8.91;44.96
47080;BME280;33067;49.296;14.470;2023-04-08T09:19:37;97280.60;;;8.19;45.51
47080;BME280;33067;49.296;14.470;2023-04-08T09:22:05;97280.53;;;8.55;45.13
47080;BME280;33067;49.296;14.470;2023-04-08T09:24:29;97284.39;;;8.54;45.45
47080;BME280;33067;49.296;14.470;2023-04-08T09:26:53;97286.66;;;8.18;46.42
47080;BME280;33067;49.296;14.470;2023-04-08T09:29:23;97293.34;;;8.44;46.35
47080;BME280;33067;49.296;14.470;2023-04-08T09:31:44;97299.38;;;7.71;46.53
47080;BME280;33067;49.296;14.470;2023-04-08T09:34:10;97298.39;;;7.70;46.62
47080;BME280;33067;49.296;14.470;2023-04-08T09:36:34;97299.66;;;7.63;46.92
47080;BME280;33067;49.296;14.470;2023-04-08T09:38:59;97302.63;;;7.73;47.44
47080;BME280;33067;49.296;14.470;2023-04-08T09:41:27;97307.84;;;6.94;47.98
47080;BME280;33067;49.296;14.470;2023-04-08T09:43:54;97307.52;;;7.87;47.30
47080;BME280;33067;49.296;14.470;2023-04-08T09:46:17;97306.22;;;7.91;47.37
47080;BME280;33067;49.296;14.470;2023-04-08T09:48:49;97311.00;;;7.82;47.43
47080;BME280;33067;49.296;14.470;2023-04-08T09:51:07;97311.20;;;7.73;46.91
47080;BME280;33067;49.296;14.470;2023-04-08T09:53:35;97306.51;;;8.07;46.37
47080;BME280;33067;49.296;14.470;2023-04-08T09:55:59;97309.39;;;8.31;45.52
47080;BME280;33067;49.296;14.470;2023-04-08T09:58:27;97312.61;;;7.59;46.67
47080;BME280;33067;49.296;14.470;2023-04-08T10:00:50;97317.05;;;7.98;45.40
47080;BME280;33067;49.296;14.470;2023-04-08T10:03:21;97316.61;;;7.24;46.42
47080;BME280;33067;49.296;14.470;2023-04-08T10:05:40;97321.95;;;7.34;47.20
47080;BME280;33067;49.296;14.470;2023-04-08T10:08:06;97322.96;;;7.68;46.76
47080;BME280;33067;49.296;14.470;2023-04-08T10:10:30;97322.58;;;7.86;46.28
47080;BME280;33067;49.296;14.470;2023-04-08T10:12:56;97323.57;;;8.16;46.47
47080;BME280;33067;49.296;14.470;2023-04-08T10:15:26;97319.92;;;8.19;45.52
47080;BME280;33067;49.296;14.470;2023-04-08T10:17:47;97322.03;;;8.17;45.80
47080;BME280;33067;49.296;14.470;2023-04-08T10:22:46;97322.52;;;8.69;45.10
47080;BME280;33067;49.296;14.470;2023-04-08T10:27:38;97326.31;;;8.52;44.78
47080;BME280;33067;49.296;14.470;2023-04-08T10:29:54;97332.74;;;8.01;44.98
47080;BME280;33067;49.296;14.470;2023-04-08T10:32:28;97330.18;;;8.18;44.36
47080;BME280;33067;49.296;14.470;2023-04-08T10:34:51;97335.32;;;8.01;45.19
47080;BME280;33067;49.296;14.470;2023-04-08T10:37:11;97339.64;;;7.46;46.39
47080;BME280;33067;49.296;14.470;2023-04-08T10:39:36;97342.12;;;7.99;45.21
47080;BME280;33067;49.296;14.470;2023-04-08T10:42:02;97343.65;;;7.77;45.22
47080;BME280;33067;49.296;14.470;2023-04-08T10:44:27;97342.78;;;7.99;44.98
47080;BME280;33067;49.296;14.470;2023-04-08T10:46:53;97345.69;;;7.84;44.36
47080;BME280;33067;49.296;14.470;2023-04-08T10:49:19;97345.83;;;7.76;44.76
47080;BME280;33067;49.296;14.470;2023-04-08T10:51:45;97345.31;;;8.30;45.83
47080;BME280;33067;49.296;14.470;2023-04-08T10:54:11;97347.57;;;7.70;45.26
47080;BME280;33067;49.296;14.470;2023-04-08T10:56:36;97340.33;;;8.48;45.11
47080;BME280;33067;49.296;14.470;2023-04-08T10:59:02;97343.09;;;8.27;44.92
47080;BME280;33067;49.296;14.470;2023-04-08T11:01:27;97341.78;;;8.48;44.70
47080;BME280;33067;49.296;14.470;2023-04-08T11:03:51;97342.28;;;8.37;44.19
47080;BME280;33067;49.296;14.470;2023-04-08T11:06:17;97342.95;;;8.73;43.98
47080;BME280;33067;49.296;14.470;2023-04-08T11:08:42;97351.39;;;7.98;44.97
47080;BME280;33067;49.296;14.470;2023-04-08T11:11:07;97352.82;;;8.32;44.60
47080;BME280;33067;49.296;14.470;2023-04-08T11:13:33;97352.37;;;8.56;43.52
47080;BME280;33067;49.296;14.470;2023-04-08T11:15:59;97356.24;;;8.60;43.67
47080;BME280;33067;49.296;14.470;2023-04-08T11:18:24;97361.54;;;7.75;44.57
47080;BME280;33067;49.296;14.470;2023-04-08T11:20:50;97365.25;;;7.61;44.44
47080;BME280;33067;49.296;14.470;2023-04-08T11:23:15;97365.77;;;7.23;44.79
47080;BME280;33067;49.296;14.470;2023-04-08T11:25:41;97362.18;;;8.08;43.70
47080;BME280;33067;49.296;14.470;2023-04-08T11:28:05;97361.76;;;7.61;44.71
47080;BME280;33067;49.296;14.470;2023-04-08T11:30:31;97362.41;;;7.53;44.31
47080;BME280;33067;49.296;14.470;2023-04-08T11:32:56;97360.33;;;7.72;44.00
47080;BME280;33067;49.296;14.470;2023-04-08T11:35:22;97363.23;;;7.39;44.75
47080;BME280;33067;49.296;14.470;2023-04-08T11:37:47;97363.28;;;7.60;43.96
47080;BME280;33067;49.296;14.470;2023-04-08T11:40:18;97360.59;;;7.98;43.62
47080;BME280;33067;49.296;14.470;2023-04-08T11:42:38;97360.93;;;7.73;44.59
47080;BME280;33067;49.296;14.470;2023-04-08T11:45:09;97360.08;;;8.20;43.08
47080;BME280;33067;49.296;14.470;2023-04-08T11:47:30;97362.34;;;7.72;43.47
47080;BME280;33067;49.296;14.470;2023-04-08T11:49:54;97359.51;;;8.26;42.80
47080;BME280;33067;49.296;14.470;2023-04-08T11:52:20;97359.38;;;8.16;42.75
47080;BME280;33067;49.296;14.470;2023-04-08T11:54:47;97356.89;;;8.61;42.44
47080;BME280;33067;49.296;14.470;2023-04-08T11:57:10;97359.88;;;8.71;42.55
47080;BME280;33067;49.296;14.470;2023-04-08T11:59:35;97361.88;;;8.02;43.08
47080;BME280;33067;49.296;14.470;2023-04-08T12:02:01;97357.20;;;8.23;42.80
47080;BME280;33067;49.296;14.470;2023-04-08T12:04:26;97360.22;;;8.48;43.56
47080;BME280;33067;49.296;14.470;2023-04-08T12:06:52;97358.38;;;8.80;42.58
47080;BME280;33067;49.296;14.470;2023-04-08T12:09:17;97357.92;;;8.69;42.59
47080;BME280;33067;49.296;14.470;2023-04-08T12:11:42;97358.13;;;8.45;42.97
47080;BME280;33067;49.296;14.470;2023-04-08T12:14:08;97359.12;;;9.31;42.30
47080;BME280;33067;49.296;14.470;2023-04-08T12:16:33;97361.91;;;8.48;42.99
47080;BME280;33067;49.296;14.470;2023-04-08T12:18:59;97363.51;;;8.99;43.42
47080;BME280;33067;49.296;14.470;2023-04-08T12:21:24;97366.29;;;8.87;43.38
47080;BME280;33067;49.296;14.470;2023-04-08T12:23:50;97370.44;;;9.31;42.64
47080;BME280;33067;49.296;14.470;2023-04-08T12:26:15;97374.05;;;8.95;42.94
47080;BME280;33067;49.296;14.470;2023-04-08T12:28:40;97379.54;;;8.23;44.52
47080;BME280;33067;49.296;14.470;2023-04-08T12:31:06;97382.97;;;8.36;44.31
47080;BME280;33067;49.296;14.470;2023-04-08T12:33:31;97381.41;;;8.60;44.44
47080;BME280;33067;49.296;14.470;2023-04-08T12:35:57;97378.71;;;8.94;43.83
47080;BME280;33067;49.296;14.470;2023-04-08T12:38:23;97384.87;;;8.57;44.16
47080;BME280;33067;49.296;14.470;2023-04-08T12:40:48;97386.10;;;8.53;43.64
47080;BME280;33067;49.296;14.470;2023-04-08T12:43:14;97389.31;;;8.40;43.96
47080;BME280;33067;49.296;14.470;2023-04-08T12:45:39;97388.12;;;8.07;44.72
47080;BME280;33067;49.296;14.470;2023-04-08T12:48:04;97387.30;;;8.12;44.96
47080;BME280;33067;49.296;14.470;2023-04-08T12:50:29;97385.51;;;7.91;44.81
47080;BME280;33067;49.296;14.470;2023-04-08T12:52:55;97376.02;;;8.62;43.73
47080;BME280;33067;49.296;14.470;2023-04-08T12:55:20;97375.29;;;9.23;43.18
47080;BME280;33067;49.296;14.470;2023-04-08T12:57:45;97372.39;;;8.99;43.59